Time;durP1;ratioP1;P1;durP2;ratioP2;P2;SDS_P1;SDS_P2;PMS_P1;PMS_P2;Temp;Humidity;BMP_temperature;BMP_pressure;BME280_temperature;BME280_humidity;BME280_pressure;Samples;Min_cycle;Max_cycle;Signal;HPM_P1;HPM_P2
2022/02/04 00:06:07;;;;;;;22.20;16.90;;;6.50;99.90;;;6.41;83.48;100571.88;5072178;28;20180;-70
2022/02/04 00:08:57;;;;;;;23.10;16.58;;;6.40;99.90;;;6.43;83.51;100576.06;5072443;28;20222;-71
2022/02/04 00:22:57;;;;;;;23.98;16.38;;;6.50;99.90;;;6.54;83.13;100561.31;5074756;28;20198;-70
2022/02/04 00:25:36;;;;;;;24.10;17.48;;;6.50;99.90;;;6.54;82.73;100562.16;5072688;28;20187;-71
2022/02/04 00:28:10;;;;;;;27.70;17.23;;;6.60;99.90;;;6.60;83.18;100549.81;5072276;28;20207;-71
2022/02/04 00:30:43;;;;;;;23.88;17.73;;;6.60;99.90;;;6.64;82.73;100566.41;5072221;28;20184;-70
2022/02/04 00:33:14;;;;;;;25.63;18.27;;;6.60;99.90;;;6.73;82.38;100557.28;5071841;28;20177;-70
2022/02/04 00:35:53;;;;;;;26.92;19.13;;;6.60;99.90;;;6.70;82.46;100554.94;5071121;28;20207;-71
2022/02/04 00:38:25;;;;;;;23.48;20.17;;;6.70;99.90;;;6.63;82.68;100560.22;5071147;28;20207;-70
2022/02/04 00:41:00;;;;;;;27.25;19.73;;;6.60;99.90;;;6.71;82.51;100567.38;5071492;28;20200;-72
2022/02/04 00:43:30;;;;;;;26.80;18.38;;;6.70;99.90;;;6.61;82.75;100558.72;5070954;28;20191;-71
2022/02/04 00:46:06;;;;;;;25.80;18.00;;;6.60;99.90;;;6.63;83.18;100562.91;5070272;28;20199;-70
2022/02/04 00:49:03;;;;;;;27.85;19.30;;;6.60;99.90;;;6.69;82.50;100570.22;5071659;28;20686;-72
2022/02/04 00:51:38;;;;;;;30.33;19.15;;;6.70;99.90;;;6.62;82.98;100558.56;5071451;28;20188;-71
2022/02/04 00:54:17;;;;;;;25.80;18.30;;;6.60;99.90;;;6.60;82.61;100559.75;5071447;28;20175;-71
2022/02/04 00:57:03;;;;;;;28.58;19.27;;;6.60;99.90;;;6.57;83.18;100565.50;5070940;28;20237;-73
2022/02/04 01:13:33;;;;;;;30.23;21.33;;;6.50;99.90;;;6.53;82.86;100563.16;5071124;28;20542;-70
2022/02/04 01:27:08;;;;;;;27.80;20.75;;;6.60;99.90;;;6.49;82.22;100559.19;5071274;28;20176;-71
2022/02/04 01:29:48;;;;;;;29.88;21.48;;;6.50;99.90;;;6.54;82.22;100567.53;5071580;28;20223;-71
2022/02/04 01:32:16;;;;;;;24.05;17.63;;;6.50;99.90;;;6.58;81.75;100556.44;5071644;28;20180;-72
2022/02/04 01:34:45;;;;;;;30.77;21.58;;;6.50;99.90;;;6.56;82.04;100556.59;5070798;28;20210;-70
2022/02/04 01:37:14;;;;;;;28.73;19.58;;;6.50;99.90;;;6.58;81.90;100557.25;5071879;28;20662;-72
2022/02/04 01:39:43;;;;;;;29.95;20.70;;;6.60;99.90;;;6.52;82.18;100556.13;5070638;28;20261;-71
2022/02/04 01:42:11;;;;;;;31.33;20.70;;;6.50;99.90;;;6.49;81.94;100555.66;5070936;28;20235;-72
2022/02/04 01:44:39;;;;;;;27.60;20.40;;;6.50;99.90;;;6.54;82.03;100550.56;5070827;28;20551;-71
2022/02/04 01:47:08;;;;;;;32.92;22.02;;;6.50;99.90;;;6.54;82.25;100551.41;5071052;28;20688;-70
2022/02/04 01:49:36;;;;;;;32.33;22.33;;;6.50;99.90;;;6.45;82.24;100551.66;5070982;28;20298;-72
2022/02/04 01:52:05;;;;;;;30.00;21.73;;;6.40;99.90;;;6.42;82.60;100563.63;5071293;28;20184;-72
2022/02/04 01:54:35;;;;;;;36.88;23.25;;;6.40;99.90;;;6.51;82.80;100557.16;5071131;28;20199;-72
2022/02/04 01:57:04;;;;;;;30.83;21.52;;;6.50;99.90;;;6.57;82.62;100558.28;5053540;28;20286;-71
2022/02/04 01:59:32;;;;;;;28.55;21.75;;;6.50;99.90;;;6.52;82.26;100558.81;5076286;28;20682;-70
2022/02/04 02:02:01;;;;;;;34.25;22.40;;;6.50;99.90;;;6.52;82.35;100561.50;5080295;28;20253;-70
2022/02/04 02:04:32;;;;;;;30.98;20.13;;;6.50;99.90;;;6.45;82.48;100563.25;5079246;28;20195;-70
2022/02/04 02:07:04;;;;;;;36.53;24.38;;;6.40;99.90;;;6.56;82.65;100572.72;5078829;28;20188;-70
2022/02/04 02:09:43;;;;;;;34.00;22.45;;;6.50;99.90;;;6.51;82.87;100569.75;5078579;28;20214;-72
2022/02/04 02:12:15;;;;;;;36.50;22.77;;;6.50;99.90;;;6.50;82.59;100570.75;5079698;28;20257;-69
2022/02/04 02:14:45;;;;;;;32.83;21.77;;;6.50;99.90;;;6.53;82.46;100568.53;5077485;28;20184;-70
2022/02/04 02:44:47;;;;;;;31.55;22.83;;;6.40;99.90;;;6.36;81.34;100558.16;5073372;28;20183;-72
2022/02/04 02:47:31;;;;;;;30.38;21.30;;;6.40;99.90;;;6.35;81.81;100557.31;5074546;28;20176;-70
2022/02/04 02:50:18;;;;;;;35.97;22.17;;;6.40;99.90;;;6.47;81.66;100555.84;5075782;28;20583;-71
2022/02/04 02:53:14;;;;;;;32.83;23.75;;;6.40;99.90;;;6.43;81.95;100551.88;5077929;28;20184;-72
2022/02/04 02:55:51;;;;;;;32.10;21.42;;;6.40;99.90;;;6.31;81.63;100550.63;5080601;28;20180;-72
2022/02/04 02:58:22;;;;;;;33.45;23.60;;;6.30;99.90;;;6.37;81.65;100555.28;5080182;28;20215;-72
2022/02/04 03:00:57;;;;;;;35.35;24.23;;;6.40;99.90;;;6.36;81.67;100547.41;5074774;28;20188;-73
2022/02/04 03:03:29;;;;;;;29.92;19.08;;;6.30;99.90;;;6.32;81.17;100546.94;5078240;28;20188;-72
2022/02/04 03:05:57;;;;;;;39.67;22.95;;;6.30;99.90;;;6.24;81.84;100548.88;5079731;28;20177;-71
2022/02/04 03:08:26;;;;;;;31.35;21.80;;;6.30;99.90;;;6.31;81.19;100545.25;5079164;28;20236;-71
2022/02/04 03:10:58;;;;;;;33.05;22.83;;;6.30;99.90;;;6.25;81.11;100540.59;5077767;28;20200;-69
2022/02/04 03:13:29;;;;;;;39.28;24.77;;;6.20;99.90;;;6.16;81.60;100536.34;5079132;28;20180;-71
2022/02/04 03:16:00;;;;;;;33.35;20.50;;;6.20;99.90;;;6.21;81.57;100533.09;5061192;28;20565;-71
2022/02/04 03:18:32;;;;;;;29.65;20.45;;;6.20;99.90;;;6.15;81.99;100534.66;5073568;28;20215;-72
2022/02/04 03:21:07;;;;;;;34.97;22.50;;;6.10;99.90;;;6.24;81.76;100538.97;5073477;28;20180;-72
2022/02/04 03:23:38;;;;;;;32.08;21.73;;;6.20;99.90;;;6.29;81.34;100541.94;5073699;28;20696;-72
2022/02/04 03:26:12;;;;;;;31.60;21.10;;;6.20;99.90;;;6.31;81.41;100539.03;5073445;28;20670;-70
2022/02/04 03:28:41;;;;;;;40.72;24.25;;;6.30;99.90;;;6.37;81.40;100538.31;5073052;28;20211;-71
2022/02/04 03:31:09;;;;;;;36.67;23.40;;;6.30;99.90;;;6.16;81.23;100541.69;5073313;28;20207;-71
2022/02/04 03:33:39;;;;;;;28.25;20.55;;;6.20;99.90;;;6.17;82.09;100538.00;5073307;28;20188;-72
2022/02/04 03:36:08;;;;;;;33.90;22.13;;;6.20;99.90;;;6.17;81.41;100543.38;5072955;28;20249;-72
2022/02/04 03:38:36;;;;;;;34.13;23.92;;;6.20;99.90;;;6.22;81.47;100543.66;5073051;28;20292;-69
2022/02/04 03:41:06;;;;;;;32.33;21.35;;;6.20;99.90;;;6.13;81.22;100542.09;5073160;28;20208;-71
2022/02/04 03:43:36;;;;;;;34.53;23.33;;;6.10;99.90;;;6.23;81.16;100539.97;5054955;28;20204;-70
2022/02/04 03:46:05;;;;;;;32.67;22.25;;;6.20;99.90;;;6.22;81.15;100535.59;5073361;28;20608;-71
2022/02/04 03:48:34;;;;;;;31.70;21.50;;;6.20;99.90;;;6.22;80.63;100540.16;5074861;28;20227;-71
2022/02/04 03:51:02;;;;;;;34.13;22.38;;;6.20;99.90;;;6.17;81.08;100532.63;5073977;28;20181;-71
2022/02/04 03:53:31;;;;;;;34.47;23.15;;;6.10;99.90;;;6.16;80.65;100536.34;5073868;28;20758;-71
2022/02/04 03:55:59;;;;;;;32.75;22.60;;;6.10;99.90;;;6.16;80.78;100538.19;5073402;28;20294;-71
2022/02/04 03:58:31;;;;;;;35.50;22.38;;;6.10;99.90;;;6.07;80.84;100537.44;5074584;28;20208;-70
2022/02/04 04:01:01;;;;;;;31.65;23.40;;;6.10;99.90;;;6.19;80.75;100540.53;5079770;28;20513;-70
2022/02/04 04:03:31;;;;;;;32.85;23.25;;;6.20;99.90;;;6.14;80.76;100546.44;5079692;28;20290;-70
2022/02/04 04:05:59;;;;;;;31.92;21.13;;;6.10;99.90;;;6.20;81.01;100551.06;5079412;28;20184;-70
2022/02/04 04:08:28;;;;;;;33.75;24.63;;;6.20;99.90;;;6.20;80.74;100550.22;5079471;28;20208;-70
2022/02/04 04:10:56;;;;;;;31.50;21.42;;;6.20;99.90;;;6.20;80.78;100540.31;5078325;28;20271;-72
2022/02/04 04:13:26;;;;;;;34.20;23.98;;;6.20;99.90;;;6.16;80.92;100541.69;5078207;28;20208;-70
2022/02/04 04:15:55;;;;;;;34.70;22.52;;;6.20;99.90;;;6.23;81.21;100534.59;5078172;28;20196;-71
2022/02/04 04:18:25;;;;;;;30.92;20.92;;;6.20;99.90;;;6.26;80.38;100547.66;5078715;28;20207;-71
2022/02/04 04:20:53;;;;;;;30.08;21.23;;;6.20;99.90;;;6.20;80.43;100543.00;5072994;28;20234;-71
2022/02/04 04:23:21;;;;;;;33.78;23.42;;;6.20;99.90;;;6.24;80.69;100549.72;5071818;28;20204;-70
2022/02/04 04:25:50;;;;;;;30.38;21.75;;;6.20;99.90;;;6.20;80.72;100537.63;5071642;28;20242;-73
2022/02/04 04:28:18;;;;;;;31.40;22.00;;;6.20;99.90;;;6.19;80.91;100544.03;5071526;28;20204;-71
2022/02/04 04:30:46;;;;;;;32.55;19.27;;;6.20;99.90;;;6.19;80.80;100535.97;5053864;28;20227;-70
2022/02/04 04:33:14;;;;;;;31.60;20.58;;;6.20;99.90;;;6.21;80.52;100533.94;5071871;28;20176;-70
2022/02/04 04:35:44;;;;;;;32.47;21.70;;;6.20;99.90;;;6.23;80.49;100531.91;5071345;28;20203;-71
2022/02/04 04:38:23;;;;;;;36.40;22.77;;;6.20;99.90;;;6.19;80.50;100530.63;5071459;28;20215;-70
2022/02/04 04:44:04;;;;;;;31.00;20.95;;;6.20;99.90;;;6.26;80.55;100530.69;5070041;28;20223;-71
2022/02/04 05:28:27;;;;;;;30.48;21.60;;;6.20;99.90;;;6.27;79.83;100532.38;5069635;28;20721;-69
2022/02/04 05:30:55;;;;;;;32.55;23.00;;;6.20;99.90;;;6.22;80.08;100534.78;5070000;28;20189;-69
2022/02/04 05:33:23;;;;;;;34.45;22.02;;;6.20;99.90;;;6.22;80.20;100535.59;5069650;28;20222;-69
2022/02/04 05:35:51;;;;;;;32.45;22.90;;;6.20;99.90;;;6.17;80.23;100538.00;5070096;28;20206;-70
2022/02/04 05:38:21;;;;;;;30.02;19.95;;;6.20;99.90;;;6.18;80.03;100538.84;5069769;28;20239;-69
2022/02/04 05:40:52;;;;;;;36.53;24.42;;;6.20;99.90;;;6.13;80.13;100531.34;5069397;28;20169;-69
2022/02/04 05:43:24;;;;;;;31.85;20.38;;;6.10;99.90;;;6.08;80.48;100533.72;5069307;28;20219;-70
2022/02/04 05:45:58;;;;;;;33.80;21.88;;;6.10;99.90;;;6.27;79.80;100533.22;5069438;28;20185;-70
2022/02/04 05:48:29;;;;;;;34.63;23.23;;;6.20;99.90;;;6.16;80.05;100533.66;5069633;28;20553;-70
2022/02/04 05:53:52;;;;;;;30.30;21.15;;;6.20;99.90;;;6.30;79.54;100526.63;5068768;28;20199;-70
2022/02/04 05:56:30;;;;;;;31.38;22.10;;;6.30;99.90;;;6.29;79.71;100533.88;5069495;28;20188;-70
2022/02/04 05:59:02;;;;;;;37.60;21.15;;;6.20;99.90;;;6.19;79.67;100529.78;5069455;28;20212;-69
2022/02/04 06:01:40;;;;;;;33.65;23.20;;;6.20;99.90;;;6.12;79.94;100540.41;5070007;28;20724;-70
2022/02/04 06:04:23;;;;;;;31.67;21.70;;;6.20;99.90;;;6.13;80.37;100535.88;5069956;28;20203;-70
2022/02/04 06:07:10;;;;;;;33.85;21.55;;;6.20;99.90;;;6.11;80.21;100536.88;5070347;28;20199;-69
2022/02/04 06:10:05;;;;;;;32.58;23.08;;;6.10;99.90;;;6.09;80.52;100532.72;5070252;28;20231;-70
2022/02/04 06:22:07;;;;;;;33.53;20.88;;;6.00;99.90;;;5.99;80.83;100518.72;5068317;28;20204;-69
2022/02/04 06:23:53;;;;;;;31.10;21.40;;;6.10;99.90;;;6.00;80.49;100533.81;5069860;28;20290;-71
2022/02/04 06:26:21;;;;;;;29.92;21.15;;;6.10;99.90;;;6.00;80.62;100536.50;5069082;28;20192;-71
2022/02/04 06:28:51;;;;;;;30.23;20.48;;;6.00;99.90;;;6.00;80.45;100533.81;5069533;28;20219;-72
2022/02/04 06:31:23;;;;;;;31.30;22.13;;;6.00;99.90;;;6.04;80.25;100530.56;5069468;28;20196;-69
2022/02/04 06:33:53;;;;;;;30.65;21.42;;;6.10;99.90;;;5.97;80.63;100537.69;5069854;28;20195;-71
2022/02/04 06:36:21;;;;;;;30.05;22.10;;;6.00;99.90;;;5.97;80.38;100532.31;5068889;28;20214;-71
2022/02/04 06:38:49;;;;;;;31.05;23.13;;;6.00;99.90;;;6.00;80.69;100539.19;5068549;28;20283;-69
2022/02/04 06:41:17;;;;;;;31.40;22.77;;;6.00;99.90;;;6.05;80.50;100539.47;5068938;28;20188;-71
2022/02/04 06:43:46;;;;;;;34.08;22.23;;;6.00;99.90;;;5.97;80.22;100542.22;5068755;28;20204;-70
2022/02/04 06:46:15;;;;;;;34.38;22.48;;;6.00;99.90;;;6.05;80.66;100539.47;5054391;28;20666;-70
2022/02/04 06:48:51;;;;;;;49.47;26.73;;;6.00;99.90;;;6.03;80.37;100541.50;5072601;28;20220;-70
2022/02/04 06:51:19;;;;;;;35.22;22.40;;;6.10;99.90;;;5.98;80.64;100541.19;5054346;28;20196;-70
2022/02/04 06:53:52;;;;;;;35.78;23.42;;;6.00;99.90;;;5.99;80.15;100545.56;5073066;28;20486;-71
2022/02/04 06:56:20;;;;;;;34.00;22.55;;;6.00;99.90;;;6.04;80.14;100543.19;5071225;28;20530;-71
2022/02/04 06:58:48;;;;;;;34.30;23.65;;;6.00;99.90;;;6.05;80.18;100547.53;5063331;28;20234;-71
2022/02/04 07:01:18;;;;;;;32.75;21.73;;;6.10;99.90;;;6.12;80.33;100553.84;5092484;28;20598;-73
2022/02/04 07:03:46;;;;;;;35.78;23.45;;;6.10;99.90;;;6.14;79.83;100559.03;5092695;28;20241;-71
2022/02/04 07:06:17;;;;;;;32.05;23.05;;;6.20;99.90;;;6.10;79.81;100553.16;5095422;28;20270;-70
2022/02/04 07:09:00;;;;;;;32.35;22.48;;;6.10;99.90;;;6.21;80.11;100554.59;5076935;28;20211;-71
2022/02/04 07:11:49;;;;;;;33.35;22.90;;;6.10;99.90;;;6.18;79.63;100549.59;5094024;28;20191;-73
2022/02/04 07:14:27;;;;;;;28.20;18.63;;;6.20;99.90;;;6.20;79.71;100553.75;5095457;28;20206;-70
2022/02/04 07:17:13;;;;;;;33.50;21.15;;;6.20;99.90;;;6.10;79.58;100553.16;5092639;28;20506;-69
2022/02/04 07:19:47;;;;;;;33.00;22.92;;;6.10;99.90;;;6.27;79.62;100543.97;5065410;28;20226;-69
2022/02/04 07:22:20;;;;;;;33.58;21.27;;;6.20;99.90;;;6.32;79.17;100552.31;5071962;28;20265;-70
2022/02/04 07:24:53;;;;;;;28.40;20.25;;;6.20;99.90;;;6.31;78.89;100555.16;5090117;28;20226;-70
2022/02/04 07:27:27;;;;;;;30.90;20.92;;;6.30;99.90;;;6.40;78.74;100549.53;5059277;28;20200;-70
2022/02/04 07:29:58;;;;;;;25.95;19.15;;;6.30;99.90;;;6.40;78.42;100544.16;5073293;28;20207;-70
2022/02/04 07:32:33;;;;;;;30.27;22.38;;;6.40;99.90;;;6.37;78.81;100544.53;5072785;28;20169;-69
2022/02/04 07:43:18;;;;;;;35.55;20.77;;;6.50;99.90;;;6.70;77.40;100523.50;5072733;28;20224;-71
2022/02/04 07:45:47;;;;;;;27.67;18.10;;;6.60;99.90;;;6.59;77.26;100541.94;5074391;28;20252;-69
2022/02/04 07:48:17;;;;;;;31.70;20.80;;;6.60;99.90;;;6.51;77.80;100530.28;5070940;28;20219;-70
2022/02/04 07:50:48;;;;;;;26.73;18.58;;;6.50;99.90;;;6.77;76.76;100529.81;5074677;28;20187;-72
2022/02/04 07:53:17;;;;;;;22.98;17.27;;;6.60;99.90;;;6.49;77.12;100531.47;5074454;28;20196;-72
2022/02/04 07:55:47;;;;;;;28.27;19.65;;;6.50;99.90;;;6.67;77.11;100531.94;5074257;28;20593;-72
2022/02/04 07:58:16;;;;;;;24.80;17.40;;;6.60;99.90;;;6.83;76.72;100529.03;5074727;28;20326;-72
2022/02/04 08:00:44;;;;;;;27.58;18.75;;;6.70;99.90;;;6.96;76.35;100528.41;5073238;28;20515;-70
2022/02/04 08:03:32;;;;;;;23.05;17.73;;;6.80;99.90;;;6.87;76.50;100529.53;5072947;28;20668;-70
2022/02/04 08:06:08;;;;;;;20.65;15.80;;;6.80;99.90;;;6.90;75.61;100526.47;5077443;28;20192;-71
2022/02/04 08:08:52;;;;;;;27.20;18.10;;;6.80;99.90;;;6.98;75.92;100523.66;5077231;28;20281;-72
2022/02/04 08:11:44;;;;;;;19.85;14.73;;;6.90;99.90;;;7.02;75.20;100522.25;5060970;28;20200;-72
2022/02/04 08:14:35;;;;;;;21.75;15.95;;;6.90;99.90;;;6.90;75.58;100519.22;5070148;28;20230;-73
2022/02/04 08:17:22;;;;;;;26.48;16.67;;;6.90;99.90;;;6.95;75.38;100521.34;5084508;28;20644;-70
2022/02/04 08:20:23;;;;;;;19.60;15.60;;;6.90;99.90;;;6.98;75.12;100515.59;5069356;28;20208;-70
2022/02/04 08:23:09;;;;;;;21.58;15.75;;;6.90;99.90;;;6.96;75.14;100517.66;5084059;28;20272;-70
2022/02/04 08:26:01;;;;;;;18.85;14.07;;;6.90;99.90;;;6.90;74.97;100519.22;5067682;28;20822;-71
2022/02/04 08:28:53;;;;;;;20.38;14.40;;;6.90;99.90;;;6.96;74.60;100520.34;5090883;28;20242;-72
2022/02/04 08:31:44;;;;;;;22.50;14.50;;;6.90;99.90;;;7.16;74.81;100507.13;5085585;28;20182;-72
2022/02/04 08:51:37;;;;;;;16.17;12.43;;;7.20;1.00;;;7.24;72.90;100510.53;5046523;22;20629;-73
2022/02/04 08:54:18;;;;;;;17.50;13.18;;;7.20;1.00;;;7.41;73.01;100500.34;5044192;28;20202;-72
2022/02/04 08:56:55;;;;;;;14.52;11.50;;;7.30;1.00;;;7.44;73.26;100499.97;5030034;28;20205;-72
2022/02/04 08:59:32;;;;;;;19.27;12.38;;;7.30;1.00;;;7.71;72.10;100496.50;5048099;28;20216;-71
2022/02/04 09:02:06;;;;;;;17.70;12.65;;;7.50;1.00;;;7.78;71.29;100491.19;5047461;28;20192;-70
2022/02/04 09:04:40;;;;;;;14.75;11.40;;;7.60;1.00;;;7.57;71.61;100488.50;5044742;28;20272;-74
2022/02/04 09:07:15;;;;;;;13.70;10.98;;;7.50;99.90;;;7.58;71.57;100495.56;5047461;28;20267;-70
2022/02/04 09:09:51;;;;;;;16.42;11.82;;;7.50;99.90;;;7.42;71.78;100492.09;5047827;28;20222;-72
2022/02/04 09:21:09;;;;;;;11.50;10.18;;;7.30;99.90;;;7.27;71.49;100487.78;5048297;28;20185;-73
2022/02/04 09:23:37;;;;;;;12.35;9.30;;;7.30;99.90;;;7.35;71.58;100498.44;5047595;28;20251;-73
2022/02/04 09:26:08;;;;;;;14.18;10.50;;;7.30;99.90;;;7.43;71.37;100485.69;5048651;28;20648;-72
2022/02/04 09:28:37;;;;;;;12.65;9.93;;;7.30;1.00;;;7.27;71.27;100482.38;5056606;28;20215;-72
2022/02/04 09:31:06;;;;;;;11.10;8.23;;;7.30;99.90;;;7.30;71.58;100477.47;5040583;28;20204;-70
2022/02/04 09:33:39;;;;;;;13.57;9.88;;;7.30;99.90;;;7.32;71.34;100480.78;5048384;28;20192;-72
2022/02/04 09:36:20;;;;;;;20.48;10.77;;;7.30;99.90;;;7.45;71.31;100495.44;5047732;28;20211;-72
2022/02/04 09:38:53;;;;;;;13.07;9.45;;;7.30;99.90;;;7.42;70.75;100492.09;5047810;28;20224;-72
2022/02/04 09:41:24;;;;;;;10.93;8.75;;;7.40;99.90;;;7.48;71.45;100492.34;5047768;28;20859;-72
2022/02/04 09:43:53;;;;;;;13.35;9.70;;;7.40;99.90;;;7.43;71.02;100488.38;5047472;28;20204;-72
2022/02/04 09:46:22;;;;;;;11.88;9.35;;;7.40;99.90;;;7.39;71.39;100491.63;5046273;28;20192;-73
2022/02/04 09:48:56;;;;;;;13.30;10.77;;;7.40;99.90;;;7.31;71.57;100489.88;5033539;28;20213;-73
2022/02/04 09:51:34;;;;;;;12.05;9.80;;;7.30;99.90;;;7.35;71.29;100490.38;5033934;28;20193;-71
2022/02/04 10:15:08;;;;;;;16.45;11.50;;;7.30;1.00;;;7.52;72.35;100459.47;5018050;28;20232;-72
2022/02/04 10:17:40;;;;;;;12.77;10.82;;;7.40;1.00;;;7.41;72.67;100468.03;5033421;28;20247;-70
2022/02/04 10:20:14;;;;;;;14.95;12.77;;;7.40;1.00;;;7.42;72.87;100470.53;5033480;28;20192;-73
2022/02/04 10:22:49;;;;;;;16.98;11.38;;;7.40;1.00;;;7.52;72.91;100464.00;5032911;28;20281;-72
2022/02/04 10:25:18;;;;;;;17.08;12.35;;;7.40;1.00;;;7.53;72.94;100463.81;5033051;28;20173;-73
2022/02/04 10:28:24;;;;;;;14.88;10.82;;;7.40;1.00;;;7.52;72.58;100450.53;5031654;28;20304;-72
2022/02/04 10:31:11;;;;;;;15.75;11.35;;;7.50;1.00;;;7.49;72.68;100446.41;5032863;28;20177;-70
2022/02/04 10:34:04;;;;;;;12.80;10.02;;;7.40;1.00;;;7.53;72.46;100444.97;5032441;28;20542;-73
2022/02/04 10:36:49;;;;;;;15.43;10.73;;;7.50;1.00;;;7.48;73.00;100433.13;5032371;28;20197;-73
2022/02/04 10:39:50;;;;;;;18.30;12.00;;;7.50;1.00;;;7.57;72.74;100423.88;5032751;28;20213;-72
2022/02/04 10:42:28;;;;;;;16.60;12.05;;;7.40;1.00;;;7.83;71.86;100410.63;5032229;28;20212;-72
2022/02/04 10:45:14;;;;;;;18.45;11.10;;;7.60;1.00;;;8.08;71.58;100411.84;5032414;28;20198;-71
2022/02/04 10:48:02;;;;;;;13.50;10.73;;;7.80;1.00;;;8.49;70.15;100403.81;5033183;28;20169;-73
2022/02/04 10:56:39;;;;;;;14.15;10.57;;;8.60;99.90;;;8.66;68.81;100415.09;5031309;28;20213;-72
2022/02/04 10:59:26;;;;;;;15.98;10.93;;;8.60;99.90;;;8.54;69.91;100411.28;5030986;28;20217;-70
2022/02/04 11:04:57;;;;;;;17.63;11.18;;;8.40;99.90;;;8.57;69.45;100402.78;5034872;28;20558;-72
2022/02/04 11:10:28;;;;;;;13.50;10.95;;;8.40;99.90;;;8.45;69.78;100399.00;5024066;28;20203;-72
2022/02/04 11:35:49;;;;;;;16.02;11.50;;;8.60;99.90;;;9.01;68.46;100376.16;5031377;28;20251;-72
2022/02/04 11:53:54;;;;;;;12.93;9.63;;;8.90;99.90;;;9.19;67.11;100353.16;5030963;28;20231;-73
2022/02/04 11:56:24;;;;;;;15.02;10.57;;;9.00;99.90;;;9.00;67.78;100352.09;5030755;28;20678;-73
2022/02/04 11:59:00;;;;;;;13.30;9.35;;;8.90;99.90;;;8.82;68.34;100347.25;5031062;28;20683;-71
2022/02/04 12:01:42;;;;;;;11.80;9.23;;;8.90;99.90;;;8.91;68.07;100340.63;5030971;28;20199;-72
2022/02/04 12:04:21;;;;;;;10.15;9.13;;;8.80;99.90;;;9.06;67.86;100326.97;5031119;28;20196;-72
2022/02/04 12:06:50;;;;;;;9.52;8.52;;;8.90;99.90;;;8.98;68.00;100333.41;5031179;28;20200;-73
2022/02/04 12:12:51;;;;;;;13.20;8.55;;;8.80;99.90;;;8.91;68.64;100313.66;5129521;27;20513;-70
2022/02/04 12:15:34;;;;;;;14.23;10.90;;;8.70;99.90;;;9.05;68.13;100304.53;5088208;28;20249;-74
2022/02/04 12:18:06;;;;;;;13.95;8.98;;;8.90;99.90;;;9.13;68.01;100298.97;5106193;28;20233;-73
2022/02/04 12:21:03;;;;;;;12.23;9.05;;;9.00;99.90;;;8.90;68.43;100297.69;5114642;28;20179;-72
2022/02/04 12:23:49;;;;;;;12.18;9.80;;;8.90;99.90;;;9.13;68.20;100290.84;5112720;28;20273;-73
2022/02/04 12:26:30;;;;;;;11.85;10.05;;;8.90;99.90;;;9.07;68.36;100299.78;5109149;28;20533;-74
2022/02/04 12:29:03;;;;;;;12.68;10.43;;;9.00;99.90;;;9.00;68.42;100292.72;5108615;28;20206;-69
2022/02/04 12:31:36;;;;;;;11.07;9.45;;;8.90;99.90;;;9.12;68.56;100296.44;5100408;28;20298;-73
2022/02/04 12:34:10;;;;;;;10.95;8.02;;;9.00;99.90;;;9.00;68.49;100288.16;5109014;28;20575;-73
2022/02/04 12:36:41;;;;;;;13.02;8.52;;;8.90;99.90;;;8.77;69.53;100293.09;5113620;28;20243;-74
2022/02/04 12:39:14;;;;;;;10.90;8.52;;;8.70;99.90;;;8.89;69.47;100290.63;5114413;28;20206;-73
2022/02/04 12:41:45;;;;;;;11.68;9.80;;;8.80;99.90;;;9.14;68.98;100281.72;5112408;28;20209;-71
2022/02/04 12:44:21;;;;;;;10.48;9.10;;;8.90;99.90;;;8.96;69.38;100291.44;5114457;28;20190;-72
2022/02/04 12:46:54;;;;;;;10.63;8.35;;;9.00;99.90;;;8.97;69.21;100277.75;5110027;28;20222;-71
2022/02/04 12:49:26;;;;;;;11.38;9.05;;;9.00;99.90;;;9.11;68.81;100268.63;5104755;28;20901;-72
2022/02/04 12:52:02;;;;;;;12.07;8.75;;;9.00;99.90;;;9.32;68.72;100262.19;5110538;28;20199;-72
2022/02/04 12:54:36;;;;;;;10.35;7.82;;;9.10;99.90;;;9.32;67.84;100254.09;5111789;28;20265;-72
2022/02/04 12:59:59;;;;;;;9.10;6.72;;;9.00;99.90;;;9.01;68.32;100243.91;5104167;28;20202;-70
2022/02/04 13:08:15;;;;;;;10.38;7.53;;;9.00;99.90;;;9.16;68.08;100238.31;5110631;28;20202;-74
2022/02/04 13:11:00;;;;;;;8.75;7.50;;;9.00;99.90;;;9.04;68.07;100227.34;5109895;28;20210;-71
2022/02/04 13:13:35;;;;;;;8.50;6.28;;;9.00;99.90;;;9.34;67.67;100222.31;5108624;28;20245;-72
2022/02/04 13:16:06;;;;;;;7.10;5.95;;;9.10;99.90;;;9.48;66.95;100220.41;5108515;28;20194;-71
2022/02/04 13:18:36;;;;;;;7.97;6.30;;;9.30;99.90;;;9.38;67.04;100220.03;5109014;28;20206;-70
2022/02/04 13:21:05;;;;;;;6.55;5.75;;;9.20;99.90;;;9.36;67.35;100200.47;5108068;28;20167;-72
2022/02/04 13:23:34;;;;;;;7.75;6.93;;;9.20;99.90;;;9.26;66.79;100203.63;5094568;28;20240;-71
2022/02/04 13:26:06;;;;;;;7.50;6.68;;;9.20;99.90;;;9.45;66.84;100193.81;5095197;28;20699;-72
2022/02/04 13:28:37;;;;;;;7.60;6.38;;;9.20;99.90;;;9.56;66.51;100191.31;5095423;28;20685;-72
2022/02/04 13:31:11;;;;;;;8.77;6.90;;;9.40;99.90;;;9.43;66.81;100185.13;5094579;28;20237;-73
2022/02/04 13:33:51;;;;;;;9.48;6.82;;;9.30;99.90;;;9.37;66.54;100180.56;5095869;28;20626;-72
2022/02/04 13:36:27;;;;;;;9.38;7.15;;;9.30;99.90;;;9.37;66.41;100180.56;5094366;28;20187;-72
2022/02/04 13:39:19;;;;;;;8.05;5.82;;;9.30;99.90;;;9.34;66.84;100165.63;5094326;28;20215;-72
2022/02/04 13:42:11;;;;;;;9.27;7.10;;;9.30;99.90;;;9.58;66.30;100172.19;5095679;28;20187;-73
2022/02/04 13:44:51;;;;;;;10.05;6.90;;;9.50;99.90;;;9.42;66.26;100167.25;5094786;28;20187;-72
2022/02/04 13:47:28;;;;;;;8.15;6.53;;;9.30;99.90;;;9.16;67.29;100168.97;5095134;28;20190;-73
2022/02/04 13:50:10;;;;;;;8.30;7.35;;;9.10;99.90;;;9.31;67.00;100167.88;5088903;28;20674;-72
2022/02/04 13:55:31;;;;;;;8.50;7.63;;;9.30;99.90;;;9.39;66.74;100154.97;5087179;28;20663;-72
2022/02/04 13:58:19;;;;;;;10.18;7.93;;;9.30;99.90;;;9.35;66.87;100155.63;5093861;28;20264;-72
2022/02/04 14:00:58;;;;;;;8.57;5.53;;;9.20;99.90;;;9.24;66.58;100153.59;5093536;28;20175;-70
2022/02/04 14:03:35;;;;;;;8.05;7.25;;;9.20;99.90;;;9.29;67.26;100151.09;5092884;28;20207;-71
2022/02/04 14:06:14;;;;;;;7.18;6.13;;;9.20;99.90;;;9.25;67.00;100156.06;5093303;28;20183;-71
2022/02/04 14:08:50;;;;;;;12.00;6.82;;;9.20;99.90;;;9.35;66.46;100158.31;5092422;28;20211;-73
2022/02/04 14:11:31;;;;;;;12.90;7.63;;;9.20;99.90;;;9.33;66.59;100157.72;5092906;28;20211;-72
2022/02/04 14:14:06;;;;;;;10.02;8.18;;;9.20;99.90;;;9.30;66.91;100147.31;5092486;28;20214;-72
2022/02/04 14:16:36;;;;;;;8.90;6.95;;;9.30;99.90;;;9.20;66.77;100153.16;5091406;28;20213;-73
2022/02/04 14:19:07;;;;;;;7.95;6.45;;;9.10;99.90;;;9.10;67.07;100148.19;5092786;28;20566;-72
2022/02/04 14:21:46;;;;;;;8.55;6.35;;;9.10;99.90;;;9.07;66.92;100154.03;5092990;28;20393;-72
2022/02/04 14:24:19;;;;;;;8.95;6.82;;;9.10;99.90;;;8.91;67.59;100143.66;5092732;28;20225;-73
2022/02/04 14:26:52;;;;;;;8.82;7.25;;;8.90;99.90;;;9.03;67.28;100147.41;5092605;28;20278;-72
2022/02/04 14:29:26;;;;;;;11.77;6.82;;;9.00;99.90;;;8.99;67.50;100145.34;5093005;28;20249;-72
2022/02/04 14:32:00;;;;;;;7.20;6.50;;;8.90;99.90;;;8.99;67.26;100140.78;5093060;28;20527;-72
2022/02/04 14:34:46;;;;;;;11.55;5.57;;;8.90;99.90;;;8.83;67.65;100143.88;5092257;28;20182;-72
2022/02/04 14:37:33;;;;;;;6.25;5.65;;;8.80;99.90;;;8.89;67.72;100140.38;5092876;28;20544;-72
2022/02/04 14:54:11;;;;;;;6.15;4.57;;;8.80;99.90;;;8.81;67.10;100100.09;5091446;28;20195;-72
2022/02/04 15:02:11;;;;;;;5.80;5.20;;;8.90;99.90;;;8.81;67.27;100093.91;5085780;28;20195;-72
2022/02/04 15:04:46;;;;;;;5.10;4.60;;;8.80;99.90;;;8.91;67.20;100088.88;5092570;28;20534;-73
2022/02/04 15:07:15;;;;;;;9.35;4.15;;;8.90;99.90;;;8.88;67.19;100083.91;5092487;28;20201;-72
2022/02/04 15:09:51;;;;;;;7.20;4.35;;;8.80;99.90;;;8.80;67.36;100073.34;5092927;28;20200;-71
2022/02/04 15:12:21;;;;;;;5.72;5.20;;;8.80;99.90;;;8.92;67.06;100072.47;5081091;28;20662;-71